createdAt,value
2022-10-17T00:00:58.552Z,18.32
2022-10-17T00:03:28.564Z,18.13
2022-10-17T00:05:59.503Z,18.27
2022-10-17T00:08:26.202Z,18.18
2022-10-17T00:11:01.214Z,18.32
2022-10-17T00:13:30.155Z,16.93
2022-10-17T00:15:56.896Z,18.11
2022-10-17T00:18:23.561Z,18.00
2022-10-17T00:20:50.982Z,18.21
2022-10-17T00:23:21.508Z,18.12
2022-10-17T00:25:48.611Z,17.69
2022-10-17T00:28:18.078Z,17.90
2022-10-17T00:30:45.436Z,18.05
2022-10-17T00:33:12.118Z,18.01
2022-10-17T00:35:39.009Z,17.84
2022-10-17T00:38:07.724Z,18.11
2022-10-17T00:40:34.397Z,18.00
2022-10-17T00:43:01.157Z,17.90
2022-10-17T00:45:32.007Z,18.07
2022-10-17T00:48:08.702Z,18.05
2022-10-17T00:50:38.921Z,17.43
2022-10-17T00:53:09.787Z,17.82
2022-10-17T00:55:53.757Z,17.88
2022-10-17T00:58:21.236Z,18.00
2022-10-17T01:00:51.319Z,18.02
2022-10-17T01:03:20.102Z,17.98
2022-10-17T01:05:48.459Z,17.85
2022-10-17T01:08:17.402Z,17.80
2022-10-17T01:11:13.640Z,16.74
2022-10-17T01:14:03.360Z,17.77
2022-10-17T01:16:52.438Z,17.87
2022-10-17T01:19:54.534Z,17.75
2022-10-17T01:22:30.891Z,17.91
2022-10-17T01:25:33.283Z,17.91
2022-10-17T01:28:21.937Z,17.90
2022-10-17T01:31:08.381Z,17.81
2022-10-17T01:33:57.412Z,17.83
2022-10-17T01:36:58.078Z,17.76
2022-10-17T01:39:47.928Z,17.73
2022-10-17T01:42:37.308Z,17.74
2022-10-17T01:45:14.558Z,17.61
2022-10-17T01:47:45.501Z,17.68
2022-10-17T01:50:37.734Z,17.65
2022-10-17T01:53:14.643Z,17.35
2022-10-17T01:55:45.497Z,17.64
2022-10-17T01:58:21.567Z,17.58
2022-10-17T02:01:03.771Z,17.59
2022-10-17T02:03:32.487Z,17.63
2022-10-17T02:06:01.847Z,17.56
2022-10-17T02:08:41.440Z,17.56
2022-10-17T02:11:17.880Z,17.57
2022-10-17T02:14:25.543Z,17.63
2022-10-17T02:17:19.160Z,17.55
2022-10-17T02:20:01.013Z,17.58
2022-10-17T02:22:27.623Z,17.52
2022-10-17T02:25:14.942Z,17.30
2022-10-17T02:28:08.078Z,17.45
2022-10-17T02:30:41.881Z,17.47
2022-10-17T02:33:14.260Z,17.42
2022-10-17T02:35:47.071Z,17.41
2022-10-17T02:38:14.691Z,17.14
2022-10-17T02:40:48.021Z,17.46
2022-10-17T02:43:15.363Z,17.42
2022-10-17T02:45:42.074Z,17.36
2022-10-17T02:48:14.755Z,17.36
2022-10-17T02:51:01.362Z,17.34
2022-10-17T02:53:40.910Z,17.22
2022-10-17T02:56:18.316Z,17.23
2022-10-17T02:58:51.185Z,17.06
2022-10-17T03:01:20.716Z,17.29
2022-10-17T03:03:51.868Z,17.33
2022-10-17T03:06:23.137Z,17.32
2022-10-17T03:08:49.934Z,17.30
2022-10-17T03:11:16.640Z,17.29
2022-10-17T03:13:43.428Z,17.27
2022-10-17T03:16:13.087Z,17.29
2022-10-17T03:18:39.750Z,17.06
2022-10-17T03:21:08.475Z,17.24
2022-10-17T03:23:35.142Z,17.14
2022-10-17T03:26:08.564Z,17.20
2022-10-17T03:28:35.642Z,17.23
2022-10-17T03:31:10.672Z,16.97
2022-10-17T03:33:38.029Z,16.96
2022-10-17T03:36:16.644Z,17.05
2022-10-17T03:38:45.793Z,16.61
2022-10-17T03:41:15.959Z,17.13
2022-10-17T03:43:43.016Z,17.04
2022-10-17T03:46:14.940Z,17.08
2022-10-17T03:48:41.542Z,16.97
2022-10-17T03:51:10.223Z,17.08
2022-10-17T03:53:37.083Z,17.22
2022-10-17T03:56:21.572Z,17.06
2022-10-17T03:58:48.538Z,17.07
2022-10-17T04:01:18.359Z,17.21
2022-10-17T04:03:52.723Z,17.16
2022-10-17T04:06:21.360Z,16.99
2022-10-17T04:08:51.123Z,16.99
2022-10-17T04:11:20.100Z,17.11
2022-10-17T04:13:47.115Z,16.86
2022-10-17T04:16:16.801Z,16.94
2022-10-17T04:18:44.056Z,17.03
2022-10-17T04:21:16.178Z,17.04
2022-10-17T04:23:45.602Z,17.00
2022-10-17T04:26:12.302Z,16.95
2022-10-17T04:31:15.487Z,16.94
2022-10-17T04:33:43.341Z,16.96
2022-10-17T04:36:17.589Z,16.94
2022-10-17T04:38:50.107Z,16.85
2022-10-17T04:41:23.413Z,16.72
2022-10-17T04:43:51.464Z,16.86
2022-10-17T04:46:18.563Z,16.23
2022-10-17T04:48:54.641Z,16.59
2022-10-17T04:51:24.433Z,16.81
2022-10-17T04:53:59.496Z,16.94
2022-10-17T04:56:31.906Z,16.79
2022-10-17T04:58:59.804Z,16.82
2022-10-17T05:01:27.320Z,16.87
2022-10-17T05:03:54.535Z,16.83
2022-10-17T05:06:26.091Z,16.67
2022-10-17T05:08:53.640Z,16.79
2022-10-17T05:11:26.011Z,16.78
2022-10-17T05:13:55.007Z,16.38
2022-10-17T05:16:22.614Z,16.81
2022-10-17T05:18:54.382Z,16.89
2022-10-17T05:21:27.669Z,16.87
2022-10-17T05:23:56.373Z,16.88
2022-10-17T05:26:23.836Z,16.68
2022-10-17T05:28:58.376Z,16.82
2022-10-17T05:31:30.858Z,16.86
2022-10-17T05:34:02.637Z,16.84
2022-10-17T05:36:29.214Z,16.99
2022-10-17T05:38:55.975Z,17.08
2022-10-17T05:41:23.870Z,16.75
2022-10-17T05:43:51.001Z,17.07
2022-10-17T05:46:20.454Z,16.88
2022-10-17T05:48:47.046Z,17.09
2022-10-17T05:51:13.814Z,16.79
2022-10-17T05:53:42.416Z,17.03
2022-10-17T05:56:11.611Z,16.99
2022-10-17T05:58:53.363Z,17.02
2022-10-17T06:01:23.660Z,17.04
2022-10-17T06:03:53.850Z,17.01
2022-10-17T06:06:30.626Z,17.02
2022-10-17T06:08:57.271Z,17.09
2022-10-17T06:11:24.113Z,17.09
2022-10-17T06:13:50.874Z,16.81
2022-10-17T06:16:17.532Z,17.09
2022-10-17T06:18:46.338Z,17.07
2022-10-17T06:21:17.444Z,17.11
2022-10-17T06:23:43.991Z,17.07
2022-10-17T06:26:10.684Z,17.25
2022-10-17T06:28:37.549Z,17.32
2022-10-17T06:31:07.644Z,17.24
2022-10-17T06:33:34.713Z,17.34
2022-10-17T06:36:02.072Z,17.47
2022-10-17T06:38:28.858Z,16.83
2022-10-17T06:41:02.238Z,17.51
2022-10-17T06:43:32.032Z,17.49
2022-10-17T06:45:58.840Z,17.44
2022-10-17T06:48:31.323Z,17.39
2022-10-17T06:51:09.967Z,17.70
2022-10-17T06:53:41.719Z,17.91
2022-10-17T06:56:09.784Z,17.81
2022-10-17T06:58:41.652Z,17.99
2022-10-17T07:01:13.410Z,17.76
2022-10-17T07:03:42.326Z,17.79
2022-10-17T07:06:11.018Z,17.78
2022-10-17T07:08:43.249Z,17.95
2022-10-17T07:11:16.067Z,17.84
2022-10-17T07:13:43.852Z,18.07
2022-10-17T07:16:11.322Z,18.24
2022-10-17T07:18:41.826Z,18.28
2022-10-17T07:21:12.715Z,18.29
2022-10-17T07:23:40.005Z,18.36
2022-10-17T07:26:17.028Z,18.34
2022-10-17T07:28:46.058Z,18.42
2022-10-17T07:31:16.403Z,18.46
2022-10-17T07:33:43.789Z,18.55
2022-10-17T07:36:11.228Z,18.63
2022-10-17T07:38:38.214Z,18.68
2022-10-17T07:41:07.142Z,18.43
2022-10-17T07:43:34.733Z,18.87
2022-10-17T07:46:06.779Z,18.66
2022-10-17T07:48:33.536Z,19.00
2022-10-17T07:51:05.820Z,18.92
2022-10-17T07:53:34.753Z,19.10
2022-10-17T07:56:07.236Z,19.18
2022-10-17T07:58:34.897Z,19.17
2022-10-17T08:01:06.646Z,19.19
2022-10-17T08:03:35.303Z,19.11
2022-10-17T08:06:07.256Z,19.13
2022-10-17T08:08:35.006Z,18.61
2022-10-17T08:11:09.460Z,19.18
2022-10-17T08:13:36.987Z,19.24
2022-10-17T08:16:10.380Z,19.31
2022-10-17T08:18:40.388Z,19.40
2022-10-17T08:21:17.577Z,19.40
2022-10-17T08:23:44.619Z,19.50
2022-10-17T08:26:15.935Z,19.58
2022-10-17T08:28:43.118Z,19.36
2022-10-17T08:31:14.816Z,19.54
2022-10-17T08:33:48.087Z,19.72
2022-10-17T08:36:18.494Z,19.41
2022-10-17T08:38:51.670Z,19.85
2022-10-17T08:41:56.946Z,19.95
2022-10-17T08:44:50.476Z,19.54
2022-10-17T08:47:27.447Z,20.09
2022-10-17T08:49:58.874Z,20.16
2022-10-17T08:53:04.130Z,20.32
2022-10-17T08:55:41.364Z,20.35
2022-10-17T08:58:31.122Z,20.39
2022-10-17T09:01:19.708Z,20.18
2022-10-17T09:04:12.539Z,20.67
2022-10-17T09:07:17.490Z,20.70
2022-10-17T09:10:18.891Z,20.80
2022-10-17T09:13:32.447Z,20.91
2022-10-17T09:16:34.518Z,21.02
2022-10-17T09:19:12.668Z,21.04
2022-10-17T09:21:45.465Z,21.24
2022-10-17T09:24:37.839Z,21.32
2022-10-17T09:27:05.767Z,21.28
2022-10-17T09:29:37.946Z,21.11
2022-10-17T09:32:21.266Z,21.39
2022-10-17T09:34:52.041Z,21.21
2022-10-17T09:37:29.352Z,21.18
2022-10-17T09:39:56.370Z,21.67
2022-10-17T09:42:28.365Z,20.68
2022-10-17T09:45:01.525Z,21.66
2022-10-17T09:48:10.381Z,21.94
2022-10-17T09:50:43.574Z,21.97
2022-10-17T09:53:49.937Z,22.22
2022-10-17T09:56:19.116Z,21.77
2022-10-17T09:58:53.669Z,22.33
2022-10-17T10:01:28.370Z,21.85
2022-10-17T10:04:13.412Z,22.42
2022-10-17T10:07:04.782Z,22.07
2022-10-17T10:09:34.861Z,21.94
2022-10-17T10:12:22.538Z,22.51
2022-10-17T10:14:54.756Z,22.37
2022-10-17T10:17:44.220Z,22.67
2022-10-17T10:20:31.376Z,22.67
2022-10-17T10:23:24.509Z,22.35
2022-10-17T10:25:58.275Z,22.88
2022-10-17T10:28:36.491Z,23.10
2022-10-17T10:31:08.285Z,23.00
2022-10-17T10:33:41.761Z,22.97
2022-10-17T10:36:10.151Z,23.04
2022-10-17T10:38:44.933Z,23.21
2022-10-17T10:41:12.090Z,22.86
2022-10-17T10:43:43.566Z,23.04
2022-10-17T10:46:21.143Z,23.25
2022-10-17T10:48:59.744Z,23.39
2022-10-17T10:51:43.288Z,23.42
2022-10-17T10:54:22.533Z,23.25
2022-10-17T10:56:59.256Z,23.20
2022-10-17T11:00:12.589Z,23.30
2022-10-17T11:03:11.734Z,23.10
2022-10-17T11:05:49.805Z,22.68
2022-10-17T11:09:04.712Z,22.67
2022-10-17T11:11:46.112Z,22.98
2022-10-17T11:14:46.450Z,22.72
2022-10-17T11:17:22.115Z,22.56
2022-10-17T11:20:32.623Z,22.23
2022-10-17T11:23:14.618Z,22.35
2022-10-17T11:25:42.456Z,22.06
2022-10-17T11:28:25.155Z,22.49
2022-10-17T11:30:55.689Z,22.93
2022-10-17T11:34:09.035Z,22.74
2022-10-17T11:36:43.380Z,22.46
2022-10-17T11:39:26.972Z,21.82
2022-10-17T11:42:11.016Z,22.07
2022-10-17T11:44:40.836Z,21.88
2022-10-17T11:47:45.901Z,22.33
2022-10-17T11:53:34.807Z,22.35
2022-10-17T11:56:05.073Z,22.23
2022-10-17T11:58:42.182Z,22.35
2022-10-17T12:01:24.640Z,22.45
2022-10-17T12:04:17.144Z,22.40
2022-10-17T12:07:17.735Z,22.49
2022-10-17T12:10:07.508Z,22.46
2022-10-17T12:12:42.210Z,22.68
2022-10-17T12:15:12.009Z,22.50
2022-10-17T12:17:47.360Z,22.35
2022-10-17T12:20:26.661Z,22.17
2022-10-17T12:22:58.030Z,22.20
2022-10-17T12:25:30.325Z,22.37
2022-10-17T12:28:13.296Z,21.89
2022-10-17T12:31:02.449Z,22.46
2022-10-17T12:33:40.751Z,22.22
2022-10-17T12:36:39.638Z,22.04
2022-10-17T12:39:16.024Z,22.37
2022-10-17T12:41:49.232Z,22.35
2022-10-17T12:44:24.838Z,22.11
2022-10-17T12:47:10.780Z,22.65
2022-10-17T12:49:46.092Z,22.59
2022-10-17T12:52:22.006Z,22.68
2022-10-17T12:55:13.227Z,22.38
2022-10-17T12:58:01.789Z,22.68
2022-10-17T13:01:11.777Z,22.70
2022-10-17T13:03:49.419Z,22.51
2022-10-17T13:06:28.812Z,22.60
2022-10-17T13:09:04.037Z,22.63
2022-10-17T13:11:35.206Z,22.57
2022-10-17T13:14:12.732Z,21.85
2022-10-17T13:16:53.876Z,21.79
2022-10-17T13:19:23.807Z,22.29
2022-10-17T13:22:05.323Z,22.24
2022-10-17T13:24:36.654Z,22.18
2022-10-17T13:27:05.462Z,21.79
2022-10-17T13:29:33.024Z,21.70
2022-10-17T13:32:01.594Z,21.89
2022-10-17T13:34:31.877Z,21.60
2022-10-17T13:37:01.636Z,21.96
2022-10-17T13:39:54.377Z,22.14
2022-10-17T13:42:28.896Z,22.24
2022-10-17T13:44:58.067Z,22.18
2022-10-17T13:47:28.849Z,21.71
2022-10-17T13:49:59.414Z,22.16
2022-10-17T13:52:29.757Z,22.13
2022-10-17T13:55:09.238Z,22.25
2022-10-17T13:57:35.919Z,22.27
2022-10-17T14:00:10.116Z,22.44
2022-10-17T14:02:45.650Z,22.04
2022-10-17T14:05:22.302Z,22.31
2022-10-17T14:08:22.058Z,22.40
2022-10-17T14:10:49.239Z,22.23
2022-10-17T14:13:37.388Z,22.30
2022-10-17T14:16:07.556Z,22.35
2022-10-17T14:18:38.256Z,22.51
2022-10-17T14:24:13.313Z,22.35
2022-10-17T14:26:52.158Z,22.39
2022-10-17T14:29:30.938Z,22.48
2022-10-17T14:32:10.897Z,22.49
2022-10-17T14:34:42.031Z,22.53
2022-10-17T14:37:31.220Z,22.50
2022-10-17T14:40:06.115Z,22.17
2022-10-17T14:42:45.577Z,22.40
2022-10-17T14:45:33.160Z,22.28
2022-10-17T14:48:24.266Z,22.15
2022-10-17T14:51:17.440Z,22.08
2022-10-17T14:54:22.223Z,21.81
2022-10-17T14:56:54.067Z,21.74
2022-10-17T14:59:53.384Z,22.01
2022-10-17T15:02:19.835Z,21.95
2022-10-17T15:04:46.979Z,22.07
2022-10-17T15:07:24.329Z,22.05
2022-10-17T15:09:53.368Z,21.94
2022-10-17T15:12:22.765Z,21.87
2022-10-17T15:14:51.084Z,21.88
2022-10-17T15:17:27.640Z,21.72
2022-10-17T15:19:54.843Z,21.74
2022-10-17T15:22:27.601Z,21.88
2022-10-17T15:24:54.864Z,21.83
2022-10-17T15:27:26.788Z,21.84
2022-10-17T15:29:53.568Z,22.04
2022-10-17T15:32:27.259Z,21.77
2022-10-17T15:34:57.552Z,21.97
2022-10-17T15:37:28.152Z,21.79
2022-10-17T15:39:55.914Z,21.03
2022-10-17T15:42:29.863Z,21.79
2022-10-17T15:45:02.049Z,21.87
2022-10-17T15:47:34.001Z,21.86
2022-10-17T15:50:01.981Z,21.83
2022-10-17T15:52:31.968Z,21.91
2022-10-17T15:55:04.385Z,21.89
2022-10-17T15:57:37.985Z,21.84
2022-10-17T16:00:17.730Z,21.61
2022-10-17T16:02:44.823Z,21.71
2022-10-17T16:05:23.121Z,21.70
2022-10-17T16:07:50.254Z,21.76
2022-10-17T16:10:20.357Z,21.60
2022-10-17T16:12:51.723Z,21.77
2022-10-17T16:15:23.834Z,21.73
2022-10-17T16:18:01.644Z,21.44
2022-10-17T16:20:31.824Z,21.65
2022-10-17T16:23:02.560Z,21.59
2022-10-17T16:25:30.959Z,21.48
2022-10-17T16:28:00.222Z,21.22
2022-10-17T16:30:55.003Z,21.24
2022-10-17T16:33:31.576Z,21.08
2022-10-17T16:36:07.365Z,20.91
2022-10-17T16:38:34.331Z,21.51
2022-10-17T16:41:02.158Z,21.60
2022-10-17T16:43:37.117Z,21.58
2022-10-17T16:46:04.475Z,21.58
2022-10-17T16:48:31.097Z,21.47
2022-10-17T16:51:04.676Z,21.57
2022-10-17T16:53:34.409Z,21.64
2022-10-17T16:56:04.156Z,21.52
2022-10-17T16:58:32.496Z,21.62
2022-10-17T17:03:45.575Z,21.47
2022-10-17T17:06:19.109Z,21.47
2022-10-17T17:08:46.344Z,21.60
2022-10-17T17:11:23.885Z,21.58
2022-10-17T17:13:51.077Z,21.48
2022-10-17T17:16:29.628Z,21.53
2022-10-17T17:19:01.759Z,21.42
2022-10-17T17:21:29.266Z,21.49
2022-10-17T17:24:01.263Z,21.46
2022-10-17T17:26:31.562Z,21.50
2022-10-17T17:29:01.014Z,21.32
2022-10-17T17:31:31.504Z,21.48
2022-10-17T17:33:59.492Z,21.10
2022-10-17T17:36:30.285Z,21.27
2022-10-17T17:38:59.282Z,21.20
2022-10-17T17:41:29.573Z,21.06
2022-10-17T17:44:00.484Z,21.33
2022-10-17T17:46:27.967Z,21.20
2022-10-17T17:48:58.212Z,21.27
2022-10-17T17:51:33.356Z,21.14
2022-10-17T17:54:00.105Z,21.21
2022-10-17T17:56:29.272Z,21.22
2022-10-17T17:58:58.523Z,21.14
2022-10-17T18:01:28.357Z,21.20
2022-10-17T18:03:56.710Z,20.91
2022-10-17T18:06:34.683Z,20.99
2022-10-17T18:09:03.377Z,20.42
2022-10-17T18:11:30.467Z,21.05
2022-10-17T18:13:59.487Z,20.98
2022-10-17T18:16:28.599Z,20.95
2022-10-17T18:18:56.340Z,21.12
2022-10-17T18:21:23.324Z,21.02
2022-10-17T18:23:53.305Z,21.05
2022-10-17T18:26:20.185Z,21.01
2022-10-17T18:28:46.875Z,20.91
2022-10-17T18:31:24.436Z,20.88
2022-10-17T18:33:53.172Z,20.78
2022-10-17T18:36:22.444Z,20.79
2022-10-17T18:38:53.515Z,20.77
2022-10-17T18:41:22.946Z,20.72
2022-10-17T18:43:55.958Z,20.55
2022-10-17T18:46:25.238Z,20.51
2022-10-17T18:49:01.329Z,20.45
2022-10-17T18:51:28.538Z,20.22
2022-10-17T18:53:58.655Z,20.27
2022-10-17T18:56:25.889Z,20.42
2022-10-17T18:58:56.242Z,20.37
2022-10-17T19:01:28.063Z,20.24
2022-10-17T19:04:01.286Z,20.36
2022-10-17T19:06:35.151Z,19.92
2022-10-17T19:09:05.731Z,20.31
2022-10-17T19:11:35.625Z,20.15
2022-10-17T19:14:14.095Z,20.21
2022-10-17T19:16:48.506Z,20.09
2022-10-17T19:19:22.664Z,20.17
2022-10-17T19:21:57.357Z,20.23
2022-10-17T19:24:27.526Z,19.42
2022-10-17T19:26:59.582Z,19.60
2022-10-17T19:29:29.799Z,19.87
2022-10-17T19:31:59.298Z,19.99
2022-10-17T19:34:29.461Z,19.56
2022-10-17T19:36:57.908Z,19.95
2022-10-17T19:39:27.702Z,19.67
2022-10-17T19:41:57.663Z,19.85
2022-10-17T19:44:25.550Z,19.24
2022-10-17T19:46:56.123Z,19.84
2022-10-17T19:49:30.167Z,19.91
2022-10-17T19:51:59.805Z,19.65
2022-10-17T19:54:29.966Z,19.86
2022-10-17T19:56:57.478Z,19.82
2022-10-17T19:59:27.140Z,19.81
2022-10-17T20:01:54.569Z,19.80
2022-10-17T20:04:27.635Z,19.75
2022-10-17T20:07:00.115Z,19.52
2022-10-17T20:09:27.519Z,19.49
2022-10-17T20:11:56.049Z,19.70
2022-10-17T20:14:23.415Z,19.59
2022-10-17T20:16:53.096Z,19.17
2022-10-17T20:19:30.756Z,19.49
2022-10-17T20:21:57.989Z,19.75
2022-10-17T20:24:29.711Z,19.68
2022-10-17T20:26:57.183Z,18.28
2022-10-17T20:29:24.583Z,19.52
2022-10-17T20:31:51.720Z,18.88
2022-10-17T20:34:19.658Z,19.62
2022-10-17T20:36:47.339Z,19.10
2022-10-17T20:39:16.561Z,18.94
2022-10-17T20:41:49.874Z,19.58
2022-10-17T20:44:17.018Z,19.48
2022-10-17T20:47:00.335Z,19.05
2022-10-17T20:49:28.482Z,19.18
2022-10-17T20:51:59.466Z,19.24
2022-10-17T20:54:31.468Z,19.37
2022-10-17T20:57:05.149Z,19.39
2022-10-17T20:59:39.784Z,19.19
2022-10-17T21:02:19.867Z,19.20
2022-10-17T21:04:48.414Z,19.10
2022-10-17T21:07:17.932Z,19.16
2022-10-17T21:09:47.906Z,18.97
2022-10-17T21:12:26.031Z,19.01
2022-10-17T21:14:59.866Z,19.18
2022-10-17T21:17:27.197Z,19.30
2022-10-17T21:19:54.137Z,19.27
2022-10-17T21:22:20.953Z,19.29
2022-10-17T21:24:50.133Z,19.28
2022-10-17T21:27:23.599Z,19.27
2022-10-17T21:29:51.334Z,19.14
2022-10-17T21:32:40.308Z,19.13
2022-10-17T21:35:12.662Z,19.20
2022-10-17T21:37:42.559Z,19.20
2022-10-17T21:40:16.432Z,19.15
2022-10-17T21:42:44.170Z,19.00
2022-10-17T21:45:15.621Z,19.06
2022-10-17T21:48:11.687Z,19.12
2022-10-17T21:50:35.181Z,19.19
2022-10-17T21:53:07.376Z,19.21
2022-10-17T21:55:37.268Z,18.99
2022-10-17T21:58:07.903Z,19.10
2022-10-17T22:00:34.570Z,18.74
2022-10-17T22:03:01.357Z,19.18
2022-10-17T22:05:28.052Z,19.09
2022-10-17T22:07:55.185Z,19.10
2022-10-17T22:10:23.028Z,19.10
2022-10-17T22:12:58.863Z,19.05
2022-10-17T22:15:29.710Z,19.03
2022-10-17T22:17:59.020Z,18.86
2022-10-17T22:20:28.958Z,19.05
2022-10-17T22:23:02.623Z,19.02
2022-10-17T22:25:30.440Z,18.94
2022-10-17T22:27:59.802Z,18.71
2022-10-17T22:30:26.746Z,18.90
2022-10-17T22:32:56.446Z,18.91
2022-10-17T22:35:23.247Z,18.79
2022-10-17T22:37:51.099Z,18.95
2022-10-17T22:40:18.063Z,18.89
2022-10-17T22:42:45.112Z,18.97
2022-10-17T22:45:11.807Z,18.85
2022-10-17T22:47:38.648Z,18.96
2022-10-17T22:50:05.815Z,18.98
2022-10-17T22:52:35.557Z,18.60
2022-10-17T22:55:02.887Z,18.97
2022-10-17T22:57:31.810Z,18.98
2022-10-17T22:59:59.958Z,18.92
2022-10-17T23:02:28.408Z,18.58
2022-10-17T23:04:55.617Z,18.79
2022-10-17T23:07:22.362Z,18.91
2022-10-17T23:09:52.220Z,18.69
2022-10-17T23:12:24.220Z,18.86
2022-10-17T23:14:55.692Z,18.70
2022-10-17T23:17:22.770Z,18.43
2022-10-17T23:19:51.846Z,18.76
2022-10-17T23:22:20.933Z,18.64
2022-10-17T23:24:47.605Z,18.45
2022-10-17T23:27:14.430Z,18.65
2022-10-17T23:29:41.181Z,18.44
2022-10-17T23:32:12.136Z,18.61
2022-10-17T23:34:38.908Z,18.60
2022-10-17T23:37:14.525Z,18.51
2022-10-17T23:39:44.222Z,18.54
2022-10-17T23:42:10.869Z,18.58
2022-10-17T23:44:37.536Z,18.61
2022-10-17T23:47:07.289Z,18.48
2022-10-17T23:49:35.646Z,18.55
2022-10-17T23:52:05.529Z,18.63
2022-10-17T23:54:32.501Z,18.66
2022-10-17T23:57:02.134Z,18.55
2022-10-17T23:59:31.476Z,18.57
